sensor_id;sensor_type;location;lat;lon;timestamp;temperature;humidity
35962;DHT22;22044;48.298;10.008;2023-12-22T00:01:25;6.50;99.90
35962;DHT22;22044;48.298;10.008;2023-12-22T00:04:37;6.40;99.90
35962;DHT22;22044;48.298;10.008;2023-12-22T00:07:48;6.40;99.90
35962;DHT22;22044;48.298;10.008;2023-12-22T00:10:59;6.30;99.90
35962;DHT22;22044;48.298;10.008;2023-12-22T00:14:10;6.30;99.90
35962;DHT22;22044;48.298;10.008;2023-12-22T00:17:21;6.20;99.90
35962;DHT22;22044;48.298;10.008;2023-12-22T00:20:33;6.10;99.90
35962;DHT22;22044;48.298;10.008;2023-12-22T06:04:44;5.40;99.90
35962;DHT22;22044;48.298;10.008;2023-12-22T06:07:30;5.50;99.90
35962;DHT22;22044;48.298;10.008;2023-12-22T06:10:16;5.60;99.90
35962;DHT22;22044;48.298;10.008;2023-12-22T06:13:02;5.60;99.90
35962;DHT22;22044;48.298;10.008;2023-12-22T06:15:49;5.70;99.90
35962;DHT22;22044;48.298;10.008;2023-12-22T06:18:35;5.70;99.90
35962;DHT22;22044;48.298;10.008;2023-12-22T06:21:22;5.70;99.90
35962;DHT22;22044;48.298;10.008;2023-12-22T06:24:08;5.70;99.90
35962;DHT22;22044;48.298;10.008;2023-12-22T06:26:54;5.60;99.90
35962;DHT22;22044;48.298;10.008;2023-12-22T06:29:39;5.60;99.90
35962;DHT22;22044;48.298;10.008;2023-12-22T06:32:25;5.60;99.90
35962;DHT22;22044;48.298;10.008;2023-12-22T06:35:11;5.60;99.90
35962;DHT22;22044;48.298;10.008;2023-12-22T06:37:58;5.60;99.90
35962;DHT22;22044;48.298;10.008;2023-12-22T06:40:47;5.50;99.90
35962;DHT22;22044;48.298;10.008;2023-12-22T06:43:33;5.40;99.90
35962;DHT22;22044;48.298;10.008;2023-12-22T06:46:19;5.30;99.90
35962;DHT22;22044;48.298;10.008;2023-12-22T06:49:06;5.20;99.90
35962;DHT22;22044;48.298;10.008;2023-12-22T06:51:52;5.20;99.90
35962;DHT22;22044;48.298;10.008;2023-12-22T06:54:39;5.20;99.90
35962;DHT22;22044;48.298;10.008;2023-12-22T06:57:24;5.10;99.90
35962;DHT22;22044;48.298;10.008;2023-12-22T07:00:11;5.10;99.90
35962;DHT22;22044;48.298;10.008;2023-12-22T07:02:57;5.10;99.90
35962;DHT22;22044;48.298;10.008;2023-12-22T07:05:42;5.10;99.90
35962;DHT22;22044;48.298;10.008;2023-12-22T07:08:28;5.00;99.90
35962;DHT22;22044;48.298;10.008;2023-12-22T07:11:15;5.00;99.90
35962;DHT22;22044;48.298;10.008;2023-12-22T07:14:02;5.00;99.90
35962;DHT22;22044;48.298;10.008;2023-12-22T07:16:48;5.00;99.90
35962;DHT22;22044;48.298;10.008;2023-12-22T07:19:33;5.00;99.90
35962;DHT22;22044;48.298;10.008;2023-12-22T07:22:19;5.00;99.90
35962;DHT22;22044;48.298;10.008;2023-12-22T07:25:06;5.00;99.90
35962;DHT22;22044;48.298;10.008;2023-12-22T07:27:54;5.00;99.90
35962;DHT22;22044;48.298;10.008;2023-12-22T07:30:39;4.90;99.90
35962;DHT22;22044;48.298;10.008;2023-12-22T07:33:25;4.90;99.90
35962;DHT22;22044;48.298;10.008;2023-12-22T07:36:11;4.90;99.90
35962;DHT22;22044;48.298;10.008;2023-12-22T07:38:56;4.80;99.90
35962;DHT22;22044;48.298;10.008;2023-12-22T07:41:43;4.80;99.90
35962;DHT22;22044;48.298;10.008;2023-12-22T07:44:30;4.80;99.90
35962;DHT22;22044;48.298;10.008;2023-12-22T07:47:15;4.80;99.90
35962;DHT22;22044;48.298;10.008;2023-12-22T07:50:01;4.90;99.90
35962;DHT22;22044;48.298;10.008;2023-12-22T07:52:47;4.90;99.90
35962;DHT22;22044;48.298;10.008;2023-12-22T07:55:34;4.90;99.90
35962;DHT22;22044;48.298;10.008;2023-12-22T07:58:20;5.00;99.90
35962;DHT22;22044;48.298;10.008;2023-12-22T08:01:07;5.10;99.90
35962;DHT22;22044;48.298;10.008;2023-12-22T08:03:52;5.20;99.90
35962;DHT22;22044;48.298;10.008;2023-12-22T08:06:38;5.20;99.90
35962;DHT22;22044;48.298;10.008;2023-12-22T08:09:23;5.30;99.90
35962;DHT22;22044;48.298;10.008;2023-12-22T08:12:09;5.30;99.90
35962;DHT22;22044;48.298;10.008;2023-12-22T08:14:55;5.40;99.90
35962;DHT22;22044;48.298;10.008;2023-12-22T08:17:47;5.40;99.90
35962;DHT22;22044;48.298;10.008;2023-12-22T08:20:32;5.40;99.90
35962;DHT22;22044;48.298;10.008;2023-12-22T08:23:18;5.50;99.90
35962;DHT22;22044;48.298;10.008;2023-12-22T08:26:05;5.50;99.90
35962;DHT22;22044;48.298;10.008;2023-12-22T08:28:50;5.50;99.90
35962;DHT22;22044;48.298;10.008;2023-12-22T08:31:36;5.50;99.90
35962;DHT22;22044;48.298;10.008;2023-12-22T08:34:23;5.50;99.90
35962;DHT22;22044;48.298;10.008;2023-12-22T08:37:09;5.50;99.90
35962;DHT22;22044;48.298;10.008;2023-12-22T08:39:54;5.50;99.90
35962;DHT22;22044;48.298;10.008;2023-12-22T08:42:40;5.60;99.90
35962;DHT22;22044;48.298;10.008;2023-12-22T08:45:26;5.50;99.90
35962;DHT22;22044;48.298;10.008;2023-12-22T08:48:13;5.50;99.90
35962;DHT22;22044;48.298;10.008;2023-12-22T08:51:00;5.50;99.90
35962;DHT22;22044;48.298;10.008;2023-12-22T08:53:45;5.60;99.90
35962;DHT22;22044;48.298;10.008;2023-12-22T08:56:31;5.60;99.90
35962;DHT22;22044;48.298;10.008;2023-12-22T08:59:16;5.50;99.90
35962;DHT22;22044;48.298;10.008;2023-12-22T09:02:02;5.60;99.90
35962;DHT22;22044;48.298;10.008;2023-12-22T09:04:47;5.60;99.90
35962;DHT22;22044;48.298;10.008;2023-12-22T09:07:34;5.60;99.90
35962;DHT22;22044;48.298;10.008;2023-12-22T09:10:21;5.70;99.90
35962;DHT22;22044;48.298;10.008;2023-12-22T09:13:06;5.70;99.90
35962;DHT22;22044;48.298;10.008;2023-12-22T09:15:52;5.70;99.90
35962;DHT22;22044;48.298;10.008;2023-12-22T09:18:37;5.70;99.90
35962;DHT22;22044;48.298;10.008;2023-12-22T09:21:24;5.80;99.90
35962;DHT22;22044;48.298;10.008;2023-12-22T09:24:12;5.80;99.90
35962;DHT22;22044;48.298;10.008;2023-12-22T09:26:57;5.90;99.90
35962;DHT22;22044;48.298;10.008;2023-12-22T09:29:47;5.90;99.90
35962;DHT22;22044;48.298;10.008;2023-12-22T09:32:32;5.90;99.90
35962;DHT22;22044;48.298;10.008;2023-12-22T09:35:19;5.90;99.90
35962;DHT22;22044;48.298;10.008;2023-12-22T09:38:05;5.90;99.90
35962;DHT22;22044;48.298;10.008;2023-12-22T09:40:51;5.90;99.90
35962;DHT22;22044;48.298;10.008;2023-12-22T09:43:37;5.90;99.90
35962;DHT22;22044;48.298;10.008;2023-12-22T09:46:25;6.00;99.90
35962;DHT22;22044;48.298;10.008;2023-12-22T09:49:13;6.00;99.90
35962;DHT22;22044;48.298;10.008;2023-12-22T09:51:59;6.00;99.90
35962;DHT22;22044;48.298;10.008;2023-12-22T09:54:48;6.00;99.90
35962;DHT22;22044;48.298;10.008;2023-12-22T09:57:36;6.00;99.90
35962;DHT22;22044;48.298;10.008;2023-12-22T10:00:22;6.10;99.90
35962;DHT22;22044;48.298;10.008;2023-12-22T10:03:10;6.10;99.90
35962;DHT22;22044;48.298;10.008;2023-12-22T10:05:56;6.00;99.90
35962;DHT22;22044;48.298;10.008;2023-12-22T10:08:41;6.10;99.90
35962;DHT22;22044;48.298;10.008;2023-12-22T10:11:28;6.10;99.90
35962;DHT22;22044;48.298;10.008;2023-12-22T10:14:16;6.00;99.90
35962;DHT22;22044;48.298;10.008;2023-12-22T10:17:06;6.10;99.90
35962;DHT22;22044;48.298;10.008;2023-12-22T10:19:51;6.00;99.90
35962;DHT22;22044;48.298;10.008;2023-12-22T10:22:37;6.00;99.90
35962;DHT22;22044;48.298;10.008;2023-12-22T10:25:27;6.00;99.90
35962;DHT22;22044;48.298;10.008;2023-12-22T10:28:14;6.00;99.90
35962;DHT22;22044;48.298;10.008;2023-12-22T10:31:02;6.10;99.90
35962;DHT22;22044;48.298;10.008;2023-12-22T10:33:50;6.10;99.90
35962;DHT22;22044;48.298;10.008;2023-12-22T10:36:36;6.20;99.90
35962;DHT22;22044;48.298;10.008;2023-12-22T10:39:22;6.20;99.90
35962;DHT22;22044;48.298;10.008;2023-12-22T10:42:07;6.10;99.90
35962;DHT22;22044;48.298;10.008;2023-12-22T10:44:53;6.10;99.90
35962;DHT22;22044;48.298;10.008;2023-12-22T10:47:40;6.20;99.90
35962;DHT22;22044;48.298;10.008;2023-12-22T10:50:26;6.20;99.90
35962;DHT22;22044;48.298;10.008;2023-12-22T10:53:13;6.20;99.90
35962;DHT22;22044;48.298;10.008;2023-12-22T10:55:59;6.10;99.90
35962;DHT22;22044;48.298;10.008;2023-12-22T10:58:45;6.20;99.90
35962;DHT22;22044;48.298;10.008;2023-12-22T11:01:32;6.20;99.90
35962;DHT22;22044;48.298;10.008;2023-12-22T11:04:20;6.20;99.90
35962;DHT22;22044;48.298;10.008;2023-12-22T11:07:08;6.20;99.90
35962;DHT22;22044;48.298;10.008;2023-12-22T11:09:56;6.20;99.90
35962;DHT22;22044;48.298;10.008;2023-12-22T11:12:42;6.30;99.90
35962;DHT22;22044;48.298;10.008;2023-12-22T11:15:30;6.30;99.90
35962;DHT22;22044;48.298;10.008;2023-12-22T11:18:17;6.30;99.90
35962;DHT22;22044;48.298;10.008;2023-12-22T11:21:06;6.20;99.90
35962;DHT22;22044;48.298;10.008;2023-12-22T11:23:53;6.20;99.90
35962;DHT22;22044;48.298;10.008;2023-12-22T11:26:41;6.30;99.90
35962;DHT22;22044;48.298;10.008;2023-12-22T11:29:26;6.20;99.90
35962;DHT22;22044;48.298;10.008;2023-12-22T11:32:15;6.20;99.90
35962;DHT22;22044;48.298;10.008;2023-12-22T11:35:02;6.20;99.90
35962;DHT22;22044;48.298;10.008;2023-12-22T11:37:49;6.20;99.90
35962;DHT22;22044;48.298;10.008;2023-12-22T11:40:34;6.20;99.90
35962;DHT22;22044;48.298;10.008;2023-12-22T11:43:21;6.10;99.90
35962;DHT22;22044;48.298;10.008;2023-12-22T11:46:07;6.10;99.90
35962;DHT22;22044;48.298;10.008;2023-12-22T11:48:53;6.10;99.90
35962;DHT22;22044;48.298;10.008;2023-12-22T11:51:39;6.00;99.90
35962;DHT22;22044;48.298;10.008;2023-12-22T11:54:51;6.00;99.90
35962;DHT22;22044;48.298;10.008;2023-12-22T11:57:38;6.00;99.90
35962;DHT22;22044;48.298;10.008;2023-12-22T12:00:38;6.00;99.90
35962;DHT22;22044;48.298;10.008;2023-12-22T12:03:23;6.00;99.90
35962;DHT22;22044;48.298;10.008;2023-12-22T12:06:21;6.00;99.90
35962;DHT22;22044;48.298;10.008;2023-12-22T12:09:07;6.00;99.90
35962;DHT22;22044;48.298;10.008;2023-12-22T12:12:12;6.00;99.90
35962;DHT22;22044;48.298;10.008;2023-12-22T12:15:05;5.90;99.90
35962;DHT22;22044;48.298;10.008;2023-12-22T12:17:52;5.90;99.90
35962;DHT22;22044;48.298;10.008;2023-12-22T12:20:38;5.90;99.90
35962;DHT22;22044;48.298;10.008;2023-12-22T12:23:24;5.90;99.90
35962;DHT22;22044;48.298;10.008;2023-12-22T12:26:11;5.90;99.90
35962;DHT22;22044;48.298;10.008;2023-12-22T12:28:59;5.90;99.90
35962;DHT22;22044;48.298;10.008;2023-12-22T12:31:45;5.90;99.90
35962;DHT22;22044;48.298;10.008;2023-12-22T12:34:30;5.90;99.90
35962;DHT22;22044;48.298;10.008;2023-12-22T12:37:16;5.90;99.90
35962;DHT22;22044;48.298;10.008;2023-12-22T12:40:07;5.90;99.90
35962;DHT22;22044;48.298;10.008;2023-12-22T12:42:54;5.90;99.90
35962;DHT22;22044;48.298;10.008;2023-12-22T12:45:41;5.90;99.90
35962;DHT22;22044;48.298;10.008;2023-12-22T12:48:26;5.90;99.90
35962;DHT22;22044;48.298;10.008;2023-12-22T12:51:12;5.90;99.90
35962;DHT22;22044;48.298;10.008;2023-12-22T12:53:58;5.80;99.90
35962;DHT22;22044;48.298;10.008;2023-12-22T12:56:44;5.80;99.90
35962;DHT22;22044;48.298;10.008;2023-12-22T12:59:30;5.90;99.90
35962;DHT22;22044;48.298;10.008;2023-12-22T13:02:18;5.90;99.90
35962;DHT22;22044;48.298;10.008;2023-12-22T13:05:05;5.90;99.90
35962;DHT22;22044;48.298;10.008;2023-12-22T13:08:06;5.90;99.90
35962;DHT22;22044;48.298;10.008;2023-12-22T13:11:00;5.90;99.90
35962;DHT22;22044;48.298;10.008;2023-12-22T13:13:45;6.00;99.90
35962;DHT22;22044;48.298;10.008;2023-12-22T13:16:31;5.90;99.90
35962;DHT22;22044;48.298;10.008;2023-12-22T13:19:19;5.90;99.90
35962;DHT22;22044;48.298;10.008;2023-12-22T13:22:04;5.90;99.90
35962;DHT22;22044;48.298;10.008;2023-12-22T13:24:56;5.90;99.90
35962;DHT22;22044;48.298;10.008;2023-12-22T13:27:45;6.00;99.90
35962;DHT22;22044;48.298;10.008;2023-12-22T13:30:32;6.00;99.90
35962;DHT22;22044;48.298;10.008;2023-12-22T13:33:18;6.00;99.90
35962;DHT22;22044;48.298;10.008;2023-12-22T13:36:06;6.00;99.90
35962;DHT22;22044;48.298;10.008;2023-12-22T13:38:53;6.00;99.90
35962;DHT22;22044;48.298;10.008;2023-12-22T13:41:40;6.00;99.90
35962;DHT22;22044;48.298;10.008;2023-12-22T13:44:29;6.00;99.90
35962;DHT22;22044;48.298;10.008;2023-12-22T13:47:15;6.00;99.90
35962;DHT22;22044;48.298;10.008;2023-12-22T13:50:01;6.10;99.90
35962;DHT22;22044;48.298;10.008;2023-12-22T13:52:49;6.10;99.90
35962;DHT22;22044;48.298;10.008;2023-12-22T13:55:35;6.10;99.90
35962;DHT22;22044;48.298;10.008;2023-12-22T13:58:21;6.20;99.90
35962;DHT22;22044;48.298;10.008;2023-12-22T14:01:13;6.20;99.90
35962;DHT22;22044;48.298;10.008;2023-12-22T14:04:00;6.20;99.90
35962;DHT22;22044;48.298;10.008;2023-12-22T14:06:45;6.20;99.90
35962;DHT22;22044;48.298;10.008;2023-12-22T14:09:33;6.20;99.90
35962;DHT22;22044;48.298;10.008;2023-12-22T14:12:18;6.20;99.90
35962;DHT22;22044;48.298;10.008;2023-12-22T14:15:06;6.30;99.90
35962;DHT22;22044;48.298;10.008;2023-12-22T14:17:52;6.30;99.90
35962;DHT22;22044;48.298;10.008;2023-12-22T14:20:37;6.30;99.90
35962;DHT22;22044;48.298;10.008;2023-12-22T14:23:23;6.40;99.90
35962;DHT22;22044;48.298;10.008;2023-12-22T14:26:10;6.30;99.90
35962;DHT22;22044;48.298;10.008;2023-12-22T14:28:55;6.40;99.90
35962;DHT22;22044;48.298;10.008;2023-12-22T14:31:41;6.40;99.90
35962;DHT22;22044;48.298;10.008;2023-12-22T14:34:27;6.40;99.90
35962;DHT22;22044;48.298;10.008;2023-12-22T14:37:14;6.40;99.90
35962;DHT22;22044;48.298;10.008;2023-12-22T14:40:01;6.40;99.90
35962;DHT22;22044;48.298;10.008;2023-12-22T14:42:48;6.40;99.90
35962;DHT22;22044;48.298;10.008;2023-12-22T14:45:34;6.40;99.90
35962;DHT22;22044;48.298;10.008;2023-12-22T14:48:19;6.40;99.90
35962;DHT22;22044;48.298;10.008;2023-12-22T14:51:05;6.40;99.90
35962;DHT22;22044;48.298;10.008;2023-12-22T14:53:51;6.40;99.90
35962;DHT22;22044;48.298;10.008;2023-12-22T14:56:38;6.40;99.90
35962;DHT22;22044;48.298;10.008;2023-12-22T14:59:26;6.40;99.90
35962;DHT22;22044;48.298;10.008;2023-12-22T15:02:11;6.40;99.90
35962;DHT22;22044;48.298;10.008;2023-12-22T15:04:57;6.40;99.90
35962;DHT22;22044;48.298;10.008;2023-12-22T15:07:42;6.40;99.90
35962;DHT22;22044;48.298;10.008;2023-12-22T15:10:28;6.50;99.90
35962;DHT22;22044;48.298;10.008;2023-12-22T15:13:16;6.40;99.90
35962;DHT22;22044;48.298;10.008;2023-12-22T15:16:06;6.40;99.90
35962;DHT22;22044;48.298;10.008;2023-12-22T15:18:52;6.50;99.90
35962;DHT22;22044;48.298;10.008;2023-12-22T15:21:37;6.50;99.90
35962;DHT22;22044;48.298;10.008;2023-12-22T15:24:24;6.50;99.90
35962;DHT22;22044;48.298;10.008;2023-12-22T15:27:10;6.50;99.90
35962;DHT22;22044;48.298;10.008;2023-12-22T15:29:56;6.60;99.90
35962;DHT22;22044;48.298;10.008;2023-12-22T15:32:42;6.50;99.90
35962;DHT22;22044;48.298;10.008;2023-12-22T15:35:28;6.60;99.90
35962;DHT22;22044;48.298;10.008;2023-12-22T15:38:14;6.60;99.90
35962;DHT22;22044;48.298;10.008;2023-12-22T15:40:59;6.60;99.90
35962;DHT22;22044;48.298;10.008;2023-12-22T15:43:45;6.60;99.90
35962;DHT22;22044;48.298;10.008;2023-12-22T15:46:31;6.60;99.90
35962;DHT22;22044;48.298;10.008;2023-12-22T15:49:18;6.60;99.90
35962;DHT22;22044;48.298;10.008;2023-12-22T15:52:03;6.70;99.90
35962;DHT22;22044;48.298;10.008;2023-12-22T15:54:49;6.70;99.90
35962;DHT22;22044;48.298;10.008;2023-12-22T15:57:35;6.70;99.90
35962;DHT22;22044;48.298;10.008;2023-12-22T16:00:21;6.70;99.90
35962;DHT22;22044;48.298;10.008;2023-12-22T16:03:09;6.80;99.90
35962;DHT22;22044;48.298;10.008;2023-12-22T16:05:56;6.80;99.90
35962;DHT22;22044;48.298;10.008;2023-12-22T16:08:42;6.70;99.90
35962;DHT22;22044;48.298;10.008;2023-12-22T16:11:28;6.70;99.90
35962;DHT22;22044;48.298;10.008;2023-12-22T16:14:14;6.70;99.90
35962;DHT22;22044;48.298;10.008;2023-12-22T16:17:00;6.70;99.90
35962;DHT22;22044;48.298;10.008;2023-12-22T16:19:45;6.80;99.90
35962;DHT22;22044;48.298;10.008;2023-12-22T16:22:32;6.80;99.90
35962;DHT22;22044;48.298;10.008;2023-12-22T16:25:18;6.70;99.90
35962;DHT22;22044;48.298;10.008;2023-12-22T16:28:04;6.70;99.90
35962;DHT22;22044;48.298;10.008;2023-12-22T16:30:50;6.70;99.90
35962;DHT22;22044;48.298;10.008;2023-12-22T16:33:36;6.70;99.90
35962;DHT22;22044;48.298;10.008;2023-12-22T16:36:22;6.70;99.90
35962;DHT22;22044;48.298;10.008;2023-12-22T16:39:09;6.70;99.90
35962;DHT22;22044;48.298;10.008;2023-12-22T16:41:54;6.80;99.90
35962;DHT22;22044;48.298;10.008;2023-12-22T16:44:40;6.80;99.90
35962;DHT22;22044;48.298;10.008;2023-12-22T16:47:26;6.90;99.90
35962;DHT22;22044;48.298;10.008;2023-12-22T16:50:14;6.90;99.90
35962;DHT22;22044;48.298;10.008;2023-12-22T16:52:59;6.90;99.90
35962;DHT22;22044;48.298;10.008;2023-12-22T16:55:46;7.00;99.90
35962;DHT22;22044;48.298;10.008;2023-12-22T16:58:32;6.90;99.90
35962;DHT22;22044;48.298;10.008;2023-12-22T17:01:18;6.90;99.90
35962;DHT22;22044;48.298;10.008;2023-12-22T17:04:04;6.90;99.90
35962;DHT22;22044;48.298;10.008;2023-12-22T17:06:52;6.90;99.90
35962;DHT22;22044;48.298;10.008;2023-12-22T17:09:37;6.90;99.90
35962;DHT22;22044;48.298;10.008;2023-12-22T17:12:25;6.90;99.90
35962;DHT22;22044;48.298;10.008;2023-12-22T17:15:10;6.90;99.90
35962;DHT22;22044;48.298;10.008;2023-12-22T17:17:56;6.90;99.90
35962;DHT22;22044;48.298;10.008;2023-12-22T17:20:42;6.80;99.90
35962;DHT22;22044;48.298;10.008;2023-12-22T17:23:27;6.90;99.90
35962;DHT22;22044;48.298;10.008;2023-12-22T17:26:13;6.90;99.90
35962;DHT22;22044;48.298;10.008;2023-12-22T17:29:00;6.90;99.90
35962;DHT22;22044;48.298;10.008;2023-12-22T17:31:47;6.90;99.90
35962;DHT22;22044;48.298;10.008;2023-12-22T17:34:35;6.90;99.90
35962;DHT22;22044;48.298;10.008;2023-12-22T17:37:21;6.90;99.90
35962;DHT22;22044;48.298;10.008;2023-12-22T17:40:08;6.90;99.90
35962;DHT22;22044;48.298;10.008;2023-12-22T17:42:53;6.90;99.90
35962;DHT22;22044;48.298;10.008;2023-12-22T17:45:40;6.90;99.90
35962;DHT22;22044;48.298;10.008;2023-12-22T17:48:26;6.90;99.90
35962;DHT22;22044;48.298;10.008;2023-12-22T17:51:13;6.90;99.90
35962;DHT22;22044;48.298;10.008;2023-12-22T17:53:58;6.90;99.90
35962;DHT22;22044;48.298;10.008;2023-12-22T17:56:44;7.00;99.90
35962;DHT22;22044;48.298;10.008;2023-12-22T17:59:30;7.00;99.90
35962;DHT22;22044;48.298;10.008;2023-12-22T18:02:17;7.00;99.90
35962;DHT22;22044;48.298;10.008;2023-12-22T18:05:02;7.00;99.90
35962;DHT22;22044;48.298;10.008;2023-12-22T18:07:48;6.90;99.90
35962;DHT22;22044;48.298;10.008;2023-12-22T18:10:34;6.90;99.90
35962;DHT22;22044;48.298;10.008;2023-12-22T18:13:19;6.90;99.90
35962;DHT22;22044;48.298;10.008;2023-12-22T18:16:05;6.90;99.90
35962;DHT22;22044;48.298;10.008;2023-12-22T18:18:52;6.80;99.90
35962;DHT22;22044;48.298;10.008;2023-12-22T18:21:38;6.80;99.90
35962;DHT22;22044;48.298;10.008;2023-12-22T18:24:26;6.80;99.90
35962;DHT22;22044;48.298;10.008;2023-12-22T18:27:11;6.80;99.90
35962;DHT22;22044;48.298;10.008;2023-12-22T18:29:57;6.70;99.90
35962;DHT22;22044;48.298;10.008;2023-12-22T18:32:43;6.70;99.90
35962;DHT22;22044;48.298;10.008;2023-12-22T18:35:31;6.70;99.90
35962;DHT22;22044;48.298;10.008;2023-12-22T18:38:19;6.70;99.90
35962;DHT22;22044;48.298;10.008;2023-12-22T18:41:05;6.70;99.90
35962;DHT22;22044;48.298;10.008;2023-12-22T18:43:51;6.60;99.90
35962;DHT22;22044;48.298;10.008;2023-12-22T18:46:40;6.60;99.90
35962;DHT22;22044;48.298;10.008;2023-12-22T18:49:26;6.70;99.90
35962;DHT22;22044;48.298;10.008;2023-12-22T18:52:13;6.70;99.90
35962;DHT22;22044;48.298;10.008;2023-12-22T18:54:58;6.70;99.90
35962;DHT22;22044;48.298;10.008;2023-12-22T18:57:44;6.70;99.90
35962;DHT22;22044;48.298;10.008;2023-12-22T19:00:30;6.80;99.90
35962;DHT22;22044;48.298;10.008;2023-12-22T19:03:16;6.90;99.90
35962;DHT22;22044;48.298;10.008;2023-12-22T19:06:02;7.00;99.90
35962;DHT22;22044;48.298;10.008;2023-12-22T19:08:49;7.00;99.90
35962;DHT22;22044;48.298;10.008;2023-12-22T19:11:35;7.00;99.90
35962;DHT22;22044;48.298;10.008;2023-12-22T19:14:20;7.10;99.90
35962;DHT22;22044;48.298;10.008;2023-12-22T19:17:06;7.10;99.90
35962;DHT22;22044;48.298;10.008;2023-12-22T19:19:52;7.10;99.90
35962;DHT22;22044;48.298;10.008;2023-12-22T19:22:39;7.10;99.90
35962;DHT22;22044;48.298;10.008;2023-12-22T19:25:26;7.10;99.90
35962;DHT22;22044;48.298;10.008;2023-12-22T19:28:12;7.10;99.90
35962;DHT22;22044;48.298;10.008;2023-12-22T19:30:58;7.10;99.90
35962;DHT22;22044;48.298;10.008;2023-12-22T19:33:43;7.10;99.90
35962;DHT22;22044;48.298;10.008;2023-12-22T19:36:29;7.10;99.90
35962;DHT22;22044;48.298;10.008;2023-12-22T19:39:15;7.00;99.90
35962;DHT22;22044;48.298;10.008;2023-12-22T19:42:03;7.00;99.90
35962;DHT22;22044;48.298;10.008;2023-12-22T19:44:48;7.00;99.90
35962;DHT22;22044;48.298;10.008;2023-12-22T19:47:37;7.00;99.90
35962;DHT22;22044;48.298;10.008;2023-12-22T19:50:22;7.00;99.90
35962;DHT22;22044;48.298;10.008;2023-12-22T19:53:10;7.00;99.90
35962;DHT22;22044;48.298;10.008;2023-12-22T19:55:56;6.90;99.90
35962;DHT22;22044;48.298;10.008;2023-12-22T19:58:43;7.00;99.90
35962;DHT22;22044;48.298;10.008;2023-12-22T20:01:29;6.90;99.90
35962;DHT22;22044;48.298;10.008;2023-12-22T20:04:15;6.90;99.90
35962;DHT22;22044;48.298;10.008;2023-12-22T20:07:00;6.90;99.90
35962;DHT22;22044;48.298;10.008;2023-12-22T20:09:47;7.00;99.90
35962;DHT22;22044;48.298;10.008;2023-12-22T20:12:32;7.00;99.90
35962;DHT22;22044;48.298;10.008;2023-12-22T20:15:19;7.00;99.90
35962;DHT22;22044;48.298;10.008;2023-12-22T20:18:05;7.00;99.90
35962;DHT22;22044;48.298;10.008;2023-12-22T20:20:52;6.90;99.90
35962;DHT22;22044;48.298;10.008;2023-12-22T20:23:37;6.90;99.90
35962;DHT22;22044;48.298;10.008;2023-12-22T20:26:23;6.90;99.90
35962;DHT22;22044;48.298;10.008;2023-12-22T20:29:09;6.90;99.90
35962;DHT22;22044;48.298;10.008;2023-12-22T20:31:55;6.90;99.90
35962;DHT22;22044;48.298;10.008;2023-12-22T20:34:42;6.90;99.90
35962;DHT22;22044;48.298;10.008;2023-12-22T20:37:28;6.90;99.90
35962;DHT22;22044;48.298;10.008;2023-12-22T20:40:14;6.90;99.90
35962;DHT22;22044;48.298;10.008;2023-12-22T20:42:59;6.90;99.90
35962;DHT22;22044;48.298;10.008;2023-12-22T20:45:45;6.90;99.90
35962;DHT22;22044;48.298;10.008;2023-12-22T20:48:34;7.00;99.90
35962;DHT22;22044;48.298;10.008;2023-12-22T20:51:20;6.90;99.90
35962;DHT22;22044;48.298;10.008;2023-12-22T20:54:06;6.90;99.90
35962;DHT22;22044;48.298;10.008;2023-12-22T20:56:51;7.00;99.90
35962;DHT22;22044;48.298;10.008;2023-12-22T20:59:37;6.90;99.90
35962;DHT22;22044;48.298;10.008;2023-12-22T21:02:24;6.90;99.90
35962;DHT22;22044;48.298;10.008;2023-12-22T21:05:11;6.90;99.90
35962;DHT22;22044;48.298;10.008;2023-12-22T21:07:57;6.90;99.90
35962;DHT22;22044;48.298;10.008;2023-12-22T21:10:43;6.90;99.90
35962;DHT22;22044;48.298;10.008;2023-12-22T21:13:29;6.90;99.90
35962;DHT22;22044;48.298;10.008;2023-12-22T21:16:15;6.90;99.90
35962;DHT22;22044;48.298;10.008;2023-12-22T21:19:01;6.90;99.90
35962;DHT22;22044;48.298;10.008;2023-12-22T21:21:48;6.90;99.90
35962;DHT22;22044;48.298;10.008;2023-12-22T21:24:34;6.90;99.90
35962;DHT22;22044;48.298;10.008;2023-12-22T21:27:20;6.90;99.90
35962;DHT22;22044;48.298;10.008;2023-12-22T21:30:06;6.90;99.90
35962;DHT22;22044;48.298;10.008;2023-12-22T21:32:52;6.90;99.90
35962;DHT22;22044;48.298;10.008;2023-12-22T21:35:38;6.90;99.90
35962;DHT22;22044;48.298;10.008;2023-12-22T21:38:25;6.90;99.90
35962;DHT22;22044;48.298;10.008;2023-12-22T21:41:13;6.90;99.90
35962;DHT22;22044;48.298;10.008;2023-12-22T21:44:00;6.80;99.90
35962;DHT22;22044;48.298;10.008;2023-12-22T21:46:45;6.80;99.90
35962;DHT22;22044;48.298;10.008;2023-12-22T21:49:31;6.80;99.90
35962;DHT22;22044;48.298;10.008;2023-12-22T21:52:17;6.80;99.90
35962;DHT22;22044;48.298;10.008;2023-12-22T21:55:06;6.80;99.90
35962;DHT22;22044;48.298;10.008;2023-12-22T21:57:54;6.80;99.90
35962;DHT22;22044;48.298;10.008;2023-12-22T22:00:40;6.80;99.90
35962;DHT22;22044;48.298;10.008;2023-12-22T22:03:26;6.80;99.90
35962;DHT22;22044;48.298;10.008;2023-12-22T22:06:12;6.70;99.90
35962;DHT22;22044;48.298;10.008;2023-12-22T22:08:58;6.70;99.90
35962;DHT22;22044;48.298;10.008;2023-12-22T22:11:45;6.80;99.90
35962;DHT22;22044;48.298;10.008;2023-12-22T22:14:30;6.70;99.90
35962;DHT22;22044;48.298;10.008;2023-12-22T22:17:16;6.70;99.90
35962;DHT22;22044;48.298;10.008;2023-12-22T22:20:01;6.70;99.90
35962;DHT22;22044;48.298;10.008;2023-12-22T22:22:48;6.70;99.90
35962;DHT22;22044;48.298;10.008;2023-12-22T22:25:34;6.60;99.90
35962;DHT22;22044;48.298;10.008;2023-12-22T22:28:21;6.60;99.90
35962;DHT22;22044;48.298;10.008;2023-12-22T22:31:06;6.60;99.90
35962;DHT22;22044;48.298;10.008;2023-12-22T22:33:52;6.60;99.90
35962;DHT22;22044;48.298;10.008;2023-12-22T22:36:38;6.60;99.90
35962;DHT22;22044;48.298;10.008;2023-12-22T22:39:23;6.50;99.90
35962;DHT22;22044;48.298;10.008;2023-12-22T22:42:09;6.60;99.90
35962;DHT22;22044;48.298;10.008;2023-12-22T22:44:56;6.50;99.90
35962;DHT22;22044;48.298;10.008;2023-12-22T22:47:41;6.50;99.90
35962;DHT22;22044;48.298;10.008;2023-12-22T22:50:27;6.50;99.90
35962;DHT22;22044;48.298;10.008;2023-12-22T22:53:13;6.50;99.90
35962;DHT22;22044;48.298;10.008;2023-12-22T22:56:00;6.60;99.90
35962;DHT22;22044;48.298;10.008;2023-12-22T22:58:46;6.60;99.90
35962;DHT22;22044;48.298;10.008;2023-12-22T23:01:33;6.70;99.90
35962;DHT22;22044;48.298;10.008;2023-12-22T23:04:18;6.60;99.90
35962;DHT22;22044;48.298;10.008;2023-12-22T23:07:04;6.70;99.90
35962;DHT22;22044;48.298;10.008;2023-12-22T23:09:50;6.60;99.90
35962;DHT22;22044;48.298;10.008;2023-12-22T23:12:35;6.60;99.90
35962;DHT22;22044;48.298;10.008;2023-12-22T23:15:21;6.60;99.90